sensor_id;sensor_type;location;lat;lon;timestamp;P1;durP1;ratioP1;P2;durP2;ratioP2
41077;SDS011;26823;42.662;23.352;2024-02-21T00:01:42;6.75;;;5.07;;
41077;SDS011;26823;42.662;23.352;2024-02-21T00:04:08;8.23;;;5.22;;
41077;SDS011;26823;42.662;23.352;2024-02-21T00:06:33;8.48;;;5.65;;
41077;SDS011;26823;42.662;23.352;2024-02-21T00:08:59;7.22;;;5.60;;
41077;SDS011;26823;42.662;23.352;2024-02-21T00:11:24;7.53;;;5.80;;
41077;SDS011;26823;42.662;23.352;2024-02-21T00:13:49;6.00;;;4.90;;
41077;SDS011;26823;42.662;23.352;2024-02-21T00:16:18;7.20;;;5.03;;
41077;SDS011;26823;42.662;23.352;2024-02-21T00:18:43;6.15;;;4.97;;
41077;SDS011;26823;42.662;23.352;2024-02-21T00:21:09;7.38;;;4.57;;
41077;SDS011;26823;42.662;23.352;2024-02-21T00:23:34;6.78;;;5.28;;
41077;SDS011;26823;42.662;23.352;2024-02-21T00:26:00;8.18;;;5.60;;
41077;SDS011;26823;42.662;23.352;2024-02-21T00:28:25;5.80;;;4.50;;
41077;SDS011;26823;42.662;23.352;2024-02-21T00:30:51;6.78;;;4.88;;
41077;SDS011;26823;42.662;23.352;2024-02-21T00:33:18;7.95;;;5.70;;
41077;SDS011;26823;42.662;23.352;2024-02-21T00:35:44;6.10;;;5.00;;
41077;SDS011;26823;42.662;23.352;2024-02-21T00:38:09;6.60;;;5.10;;
41077;SDS011;26823;42.662;23.352;2024-02-21T00:40:35;6.70;;;5.20;;
41077;SDS011;26823;42.662;23.352;2024-02-21T00:43:00;7.47;;;5.40;;
41077;SDS011;26823;42.662;23.352;2024-02-21T00:45:26;7.30;;;5.25;;
41077;SDS011;26823;42.662;23.352;2024-02-21T00:47:51;6.07;;;4.78;;
41077;SDS011;26823;42.662;23.352;2024-02-21T00:50:17;6.28;;;5.25;;
41077;SDS011;26823;42.662;23.352;2024-02-21T00:52:42;6.60;;;5.13;;
41077;SDS011;26823;42.662;23.352;2024-02-21T00:55:08;7.38;;;5.20;;
41077;SDS011;26823;42.662;23.352;2024-02-21T00:57:34;6.68;;;5.07;;
41077;SDS011;26823;42.662;23.352;2024-02-21T00:59:59;5.43;;;4.75;;
41077;SDS011;26823;42.662;23.352;2024-02-21T01:02:25;6.10;;;4.60;;
41077;SDS011;26823;42.662;23.352;2024-02-21T01:04:51;6.30;;;4.43;;
41077;SDS011;26823;42.662;23.352;2024-02-21T01:07:16;5.55;;;4.60;;
41077;SDS011;26823;42.662;23.352;2024-02-21T01:09:42;6.07;;;4.63;;
41077;SDS011;26823;42.662;23.352;2024-02-21T01:12:07;5.72;;;4.35;;
41077;SDS011;26823;42.662;23.352;2024-02-21T01:14:33;5.07;;;4.43;;
41077;SDS011;26823;42.662;23.352;2024-02-21T01:16:58;5.65;;;4.88;;
41077;SDS011;26823;42.662;23.352;2024-02-21T01:19:23;6.43;;;5.00;;
41077;SDS011;26823;42.662;23.352;2024-02-21T01:21:49;6.57;;;5.22;;
41077;SDS011;26823;42.662;23.352;2024-02-21T01:24:14;7.00;;;5.07;;
41077;SDS011;26823;42.662;23.352;2024-02-21T01:26:41;6.57;;;5.30;;
41077;SDS011;26823;42.662;23.352;2024-02-21T01:29:06;5.13;;;4.53;;
41077;SDS011;26823;42.662;23.352;2024-02-21T01:31:32;6.97;;;4.88;;
41077;SDS011;26823;42.662;23.352;2024-02-21T01:33:57;7.15;;;5.55;;
41077;SDS011;26823;42.662;23.352;2024-02-21T01:36:23;7.60;;;5.80;;
41077;SDS011;26823;42.662;23.352;2024-02-21T01:38:48;7.10;;;5.65;;
41077;SDS011;26823;42.662;23.352;2024-02-21T01:41:14;7.75;;;5.68;;
41077;SDS011;26823;42.662;23.352;2024-02-21T01:43:39;7.35;;;5.30;;
41077;SDS011;26823;42.662;23.352;2024-02-21T01:46:05;7.78;;;5.47;;
41077;SDS011;26823;42.662;23.352;2024-02-21T01:48:30;8.40;;;5.60;;
41077;SDS011;26823;42.662;23.352;2024-02-21T01:50:56;8.07;;;6.22;;
41077;SDS011;26823;42.662;23.352;2024-02-21T01:53:29;7.57;;;5.22;;
41077;SDS011;26823;42.662;23.352;2024-02-21T01:55:58;7.57;;;5.47;;
41077;SDS011;26823;42.662;23.352;2024-02-21T01:58:24;7.55;;;5.60;;
41077;SDS011;26823;42.662;23.352;2024-02-21T02:00:50;8.85;;;5.72;;
41077;SDS011;26823;42.662;23.352;2024-02-21T02:03:15;7.43;;;5.90;;
41077;SDS011;26823;42.662;23.352;2024-02-21T02:05:46;7.63;;;5.60;;
41077;SDS011;26823;42.662;23.352;2024-02-21T02:08:13;10.02;;;6.45;;
41077;SDS011;26823;42.662;23.352;2024-02-21T02:10:40;8.32;;;6.40;;
41077;SDS011;26823;42.662;23.352;2024-02-21T02:13:06;8.13;;;6.45;;
41077;SDS011;26823;42.662;23.352;2024-02-21T02:18:04;7.53;;;5.82;;
41077;SDS011;26823;42.662;23.352;2024-02-21T02:20:30;9.23;;;6.70;;
41077;SDS011;26823;42.662;23.352;2024-02-21T02:22:55;10.00;;;6.97;;
41077;SDS011;26823;42.662;23.352;2024-02-21T02:25:22;8.50;;;6.45;;
41077;SDS011;26823;42.662;23.352;2024-02-21T02:27:48;11.13;;;8.18;;
41077;SDS011;26823;42.662;23.352;2024-02-21T02:30:13;10.52;;;8.23;;
41077;SDS011;26823;42.662;23.352;2024-02-21T02:32:39;12.35;;;8.07;;
41077;SDS011;26823;42.662;23.352;2024-02-21T02:35:09;10.68;;;7.72;;
41077;SDS011;26823;42.662;23.352;2024-02-21T02:37:34;11.38;;;7.85;;
41077;SDS011;26823;42.662;23.352;2024-02-21T02:40:00;11.63;;;8.02;;
41077;SDS011;26823;42.662;23.352;2024-02-21T02:42:25;10.43;;;8.00;;
41077;SDS011;26823;42.662;23.352;2024-02-21T02:44:51;12.13;;;8.50;;
41077;SDS011;26823;42.662;23.352;2024-02-21T02:47:16;11.35;;;8.38;;
41077;SDS011;26823;42.662;23.352;2024-02-21T02:49:41;11.25;;;8.27;;
41077;SDS011;26823;42.662;23.352;2024-02-21T02:52:07;9.65;;;7.28;;
41077;SDS011;26823;42.662;23.352;2024-02-21T02:54:33;13.05;;;9.48;;
41077;SDS011;26823;42.662;23.352;2024-02-21T02:56:59;13.68;;;9.30;;
41077;SDS011;26823;42.662;23.352;2024-02-21T02:59:25;13.43;;;9.85;;
41077;SDS011;26823;42.662;23.352;2024-02-21T03:01:50;11.73;;;9.38;;
41077;SDS011;26823;42.662;23.352;2024-02-21T03:04:16;13.35;;;9.88;;
41077;SDS011;26823;42.662;23.352;2024-02-21T03:06:41;14.45;;;9.55;;
41077;SDS011;26823;42.662;23.352;2024-02-21T03:09:06;14.20;;;9.43;;
41077;SDS011;26823;42.662;23.352;2024-02-21T03:11:33;13.73;;;9.80;;
41077;SDS011;26823;42.662;23.352;2024-02-21T03:13:59;14.85;;;9.27;;
41077;SDS011;26823;42.662;23.352;2024-02-21T03:16:24;13.50;;;9.40;;
41077;SDS011;26823;42.662;23.352;2024-02-21T03:18:50;14.18;;;9.27;;
41077;SDS011;26823;42.662;23.352;2024-02-21T03:21:16;13.38;;;9.63;;
41077;SDS011;26823;42.662;23.352;2024-02-21T03:23:41;12.15;;;9.07;;
41077;SDS011;26823;42.662;23.352;2024-02-21T03:26:06;12.18;;;8.95;;
41077;SDS011;26823;42.662;23.352;2024-02-21T03:28:32;13.57;;;8.80;;
41077;SDS011;26823;42.662;23.352;2024-02-21T03:30:58;10.93;;;8.32;;
41077;SDS011;26823;42.662;23.352;2024-02-21T03:33:23;13.90;;;9.55;;
41077;SDS011;26823;42.662;23.352;2024-02-21T03:35:48;12.80;;;9.02;;
41077;SDS011;26823;42.662;23.352;2024-02-21T03:38:14;14.30;;;9.93;;
41077;SDS011;26823;42.662;23.352;2024-02-21T03:40:39;12.00;;;9.30;;
41077;SDS011;26823;42.662;23.352;2024-02-21T03:43:05;14.20;;;8.93;;
41077;SDS011;26823;42.662;23.352;2024-02-21T03:45:30;13.23;;;9.13;;
41077;SDS011;26823;42.662;23.352;2024-02-21T03:47:56;13.02;;;9.43;;
41077;SDS011;26823;42.662;23.352;2024-02-21T03:50:21;11.68;;;8.60;;
41077;SDS011;26823;42.662;23.352;2024-02-21T03:52:46;13.30;;;9.02;;
41077;SDS011;26823;42.662;23.352;2024-02-21T03:55:12;14.80;;;9.80;;
41077;SDS011;26823;42.662;23.352;2024-02-21T03:57:40;16.23;;;10.13;;
41077;SDS011;26823;42.662;23.352;2024-02-21T04:00:06;13.73;;;9.15;;
41077;SDS011;26823;42.662;23.352;2024-02-21T04:02:36;13.73;;;9.63;;
41077;SDS011;26823;42.662;23.352;2024-02-21T04:05:01;14.35;;;9.55;;
41077;SDS011;26823;42.662;23.352;2024-02-21T04:07:26;14.15;;;9.63;;
41077;SDS011;26823;42.662;23.352;2024-02-21T04:09:52;14.23;;;9.57;;
41077;SDS011;26823;42.662;23.352;2024-02-21T04:12:18;15.15;;;9.82;;
41077;SDS011;26823;42.662;23.352;2024-02-21T04:14:43;13.88;;;9.45;;
41077;SDS011;26823;42.662;23.352;2024-02-21T04:17:08;12.80;;;9.48;;
41077;SDS011;26823;42.662;23.352;2024-02-21T04:19:34;13.25;;;9.48;;
41077;SDS011;26823;42.662;23.352;2024-02-21T04:21:59;13.95;;;9.73;;
41077;SDS011;26823;42.662;23.352;2024-02-21T04:24:25;14.80;;;9.48;;
41077;SDS011;26823;42.662;23.352;2024-02-21T04:26:50;12.98;;;9.18;;
41077;SDS011;26823;42.662;23.352;2024-02-21T04:29:16;14.25;;;9.88;;
41077;SDS011;26823;42.662;23.352;2024-02-21T04:31:41;14.43;;;9.63;;
41077;SDS011;26823;42.662;23.352;2024-02-21T04:34:07;14.68;;;10.23;;
41077;SDS011;26823;42.662;23.352;2024-02-21T04:36:32;13.85;;;10.00;;
41077;SDS011;26823;42.662;23.352;2024-02-21T04:38:58;14.68;;;9.98;;
41077;SDS011;26823;42.662;23.352;2024-02-21T04:41:23;15.55;;;10.73;;
41077;SDS011;26823;42.662;23.352;2024-02-21T04:43:49;16.20;;;10.88;;
41077;SDS011;26823;42.662;23.352;2024-02-21T04:46:15;14.27;;;9.90;;
41077;SDS011;26823;42.662;23.352;2024-02-21T04:48:41;14.85;;;11.20;;
41077;SDS011;26823;42.662;23.352;2024-02-21T04:51:08;15.27;;;10.38;;
41077;SDS011;26823;42.662;23.352;2024-02-21T04:53:34;14.13;;;11.07;;
41077;SDS011;26823;42.662;23.352;2024-02-21T04:56:01;14.48;;;10.60;;
41077;SDS011;26823;42.662;23.352;2024-02-21T04:58:26;15.18;;;10.98;;
41077;SDS011;26823;42.662;23.352;2024-02-21T05:00:52;15.45;;;10.88;;
41077;SDS011;26823;42.662;23.352;2024-02-21T05:03:18;15.40;;;10.73;;
41077;SDS011;26823;42.662;23.352;2024-02-21T05:05:43;17.70;;;11.13;;
41077;SDS011;26823;42.662;23.352;2024-02-21T05:08:09;16.27;;;11.07;;
41077;SDS011;26823;42.662;23.352;2024-02-21T05:10:35;15.43;;;11.02;;
41077;SDS011;26823;42.662;23.352;2024-02-21T05:13:01;17.98;;;11.77;;
41077;SDS011;26823;42.662;23.352;2024-02-21T05:15:27;15.43;;;11.05;;
41077;SDS011;26823;42.662;23.352;2024-02-21T05:17:52;17.75;;;11.68;;
41077;SDS011;26823;42.662;23.352;2024-02-21T05:20:18;14.73;;;10.65;;
41077;SDS011;26823;42.662;23.352;2024-02-21T05:22:43;16.50;;;11.50;;
41077;SDS011;26823;42.662;23.352;2024-02-21T05:25:09;17.77;;;11.73;;
41077;SDS011;26823;42.662;23.352;2024-02-21T05:27:34;19.05;;;11.55;;
41077;SDS011;26823;42.662;23.352;2024-02-21T05:30:01;16.85;;;12.07;;
41077;SDS011;26823;42.662;23.352;2024-02-21T05:32:26;19.42;;;11.75;;
41077;SDS011;26823;42.662;23.352;2024-02-21T05:34:51;18.70;;;12.23;;
41077;SDS011;26823;42.662;23.352;2024-02-21T05:37:17;14.90;;;10.32;;
41077;SDS011;26823;42.662;23.352;2024-02-21T05:39:43;17.48;;;11.07;;
41077;SDS011;26823;42.662;23.352;2024-02-21T05:42:09;16.70;;;11.90;;
41077;SDS011;26823;42.662;23.352;2024-02-21T05:44:34;17.85;;;11.35;;
41077;SDS011;26823;42.662;23.352;2024-02-21T05:46:59;16.50;;;11.77;;
41077;SDS011;26823;42.662;23.352;2024-02-21T05:49:25;22.77;;;14.35;;
41077;SDS011;26823;42.662;23.352;2024-02-21T05:51:50;17.88;;;11.80;;
41077;SDS011;26823;42.662;23.352;2024-02-21T05:54:16;16.98;;;11.48;;
41077;SDS011;26823;42.662;23.352;2024-02-21T05:56:45;15.95;;;10.90;;
41077;SDS011;26823;42.662;23.352;2024-02-21T05:59:11;17.08;;;11.88;;
41077;SDS011;26823;42.662;23.352;2024-02-21T06:01:37;17.70;;;11.98;;
41077;SDS011;26823;42.662;23.352;2024-02-21T06:04:02;17.88;;;11.70;;
41077;SDS011;26823;42.662;23.352;2024-02-21T06:06:27;16.33;;;11.60;;
41077;SDS011;26823;42.662;23.352;2024-02-21T06:08:53;18.88;;;12.32;;
41077;SDS011;26823;42.662;23.352;2024-02-21T06:11:18;19.95;;;11.60;;
41077;SDS011;26823;42.662;23.352;2024-02-21T06:13:44;18.65;;;13.02;;
41077;SDS011;26823;42.662;23.352;2024-02-21T06:16:09;18.40;;;12.50;;
41077;SDS011;26823;42.662;23.352;2024-02-21T06:18:35;17.77;;;12.25;;
41077;SDS011;26823;42.662;23.352;2024-02-21T06:21:02;17.85;;;12.07;;
41077;SDS011;26823;42.662;23.352;2024-02-21T06:23:30;16.88;;;12.25;;
41077;SDS011;26823;42.662;23.352;2024-02-21T06:25:56;18.48;;;13.25;;
41077;SDS011;26823;42.662;23.352;2024-02-21T06:28:21;17.00;;;13.15;;
41077;SDS011;26823;42.662;23.352;2024-02-21T06:30:47;18.77;;;13.23;;
41077;SDS011;26823;42.662;23.352;2024-02-21T06:33:12;20.55;;;13.07;;
41077;SDS011;26823;42.662;23.352;2024-02-21T06:35:39;21.73;;;12.95;;
41077;SDS011;26823;42.662;23.352;2024-02-21T06:38:06;18.67;;;12.45;;
41077;SDS011;26823;42.662;23.352;2024-02-21T06:40:32;17.15;;;12.02;;
41077;SDS011;26823;42.662;23.352;2024-02-21T06:43:04;18.38;;;11.75;;
41077;SDS011;26823;42.662;23.352;2024-02-21T06:48:16;18.13;;;13.57;;
41077;SDS011;26823;42.662;23.352;2024-02-21T06:50:42;21.48;;;13.65;;
41077;SDS011;26823;42.662;23.352;2024-02-21T06:53:07;21.55;;;13.15;;
41077;SDS011;26823;42.662;23.352;2024-02-21T06:55:32;21.20;;;13.50;;
41077;SDS011;26823;42.662;23.352;2024-02-21T06:57:58;19.55;;;13.65;;
41077;SDS011;26823;42.662;23.352;2024-02-21T07:00:23;20.83;;;14.57;;
41077;SDS011;26823;42.662;23.352;2024-02-21T07:02:50;20.88;;;13.93;;
41077;SDS011;26823;42.662;23.352;2024-02-21T07:05:16;21.40;;;14.40;;
41077;SDS011;26823;42.662;23.352;2024-02-21T07:07:41;20.33;;;14.05;;
41077;SDS011;26823;42.662;23.352;2024-02-21T07:10:06;21.60;;;14.02;;
41077;SDS011;26823;42.662;23.352;2024-02-21T07:12:33;20.45;;;13.32;;
41077;SDS011;26823;42.662;23.352;2024-02-21T07:15:00;18.33;;;12.93;;
41077;SDS011;26823;42.662;23.352;2024-02-21T07:17:25;19.27;;;14.77;;
41077;SDS011;26823;42.662;23.352;2024-02-21T07:19:51;19.23;;;14.15;;
41077;SDS011;26823;42.662;23.352;2024-02-21T07:22:16;20.58;;;13.05;;
41077;SDS011;26823;42.662;23.352;2024-02-21T07:24:42;21.83;;;13.48;;
41077;SDS011;26823;42.662;23.352;2024-02-21T07:27:07;24.60;;;14.32;;
41077;SDS011;26823;42.662;23.352;2024-02-21T07:29:32;19.65;;;13.73;;
41077;SDS011;26823;42.662;23.352;2024-02-21T07:31:58;20.45;;;14.00;;
41077;SDS011;26823;42.662;23.352;2024-02-21T07:34:23;21.15;;;12.32;;
41077;SDS011;26823;42.662;23.352;2024-02-21T07:36:49;19.25;;;13.45;;
41077;SDS011;26823;42.662;23.352;2024-02-21T07:39:14;18.77;;;13.80;;
41077;SDS011;26823;42.662;23.352;2024-02-21T07:41:41;19.55;;;13.45;;
41077;SDS011;26823;42.662;23.352;2024-02-21T07:44:08;17.17;;;12.85;;
41077;SDS011;26823;42.662;23.352;2024-02-21T07:46:34;21.52;;;14.20;;
41077;SDS011;26823;42.662;23.352;2024-02-21T07:49:00;19.65;;;12.80;;
41077;SDS011;26823;42.662;23.352;2024-02-21T07:51:27;21.50;;;13.80;;
41077;SDS011;26823;42.662;23.352;2024-02-21T07:53:53;22.20;;;14.85;;
41077;SDS011;26823;42.662;23.352;2024-02-21T07:56:19;21.27;;;12.82;;
41077;SDS011;26823;42.662;23.352;2024-02-21T07:58:44;21.10;;;14.02;;
41077;SDS011;26823;42.662;23.352;2024-02-21T08:01:10;17.58;;;13.18;;
41077;SDS011;26823;42.662;23.352;2024-02-21T08:03:36;20.77;;;14.23;;
41077;SDS011;26823;42.662;23.352;2024-02-21T08:06:02;19.88;;;15.05;;
41077;SDS011;26823;42.662;23.352;2024-02-21T08:08:28;20.00;;;13.65;;
41077;SDS011;26823;42.662;23.352;2024-02-21T08:10:53;24.20;;;14.35;;
41077;SDS011;26823;42.662;23.352;2024-02-21T08:13:19;21.05;;;15.13;;
41077;SDS011;26823;42.662;23.352;2024-02-21T08:15:45;20.05;;;14.52;;
41077;SDS011;26823;42.662;23.352;2024-02-21T08:18:11;22.90;;;15.57;;
41077;SDS011;26823;42.662;23.352;2024-02-21T08:20:36;21.55;;;15.00;;
41077;SDS011;26823;42.662;23.352;2024-02-21T08:23:02;19.73;;;12.77;;
41077;SDS011;26823;42.662;23.352;2024-02-21T08:25:27;16.35;;;12.50;;
41077;SDS011;26823;42.662;23.352;2024-02-21T08:27:57;18.48;;;13.60;;
41077;SDS011;26823;42.662;23.352;2024-02-21T08:30:23;18.85;;;13.43;;
41077;SDS011;26823;42.662;23.352;2024-02-21T08:32:49;17.80;;;12.77;;
41077;SDS011;26823;42.662;23.352;2024-02-21T08:35:14;15.45;;;11.93;;
41077;SDS011;26823;42.662;23.352;2024-02-21T08:37:40;15.27;;;11.57;;
41077;SDS011;26823;42.662;23.352;2024-02-21T08:40:07;16.30;;;11.90;;
41077;SDS011;26823;42.662;23.352;2024-02-21T08:42:35;14.25;;;11.63;;
41077;SDS011;26823;42.662;23.352;2024-02-21T08:45:01;15.57;;;11.32;;
41077;SDS011;26823;42.662;23.352;2024-02-21T08:47:27;12.52;;;10.88;;
41077;SDS011;26823;42.662;23.352;2024-02-21T08:49:52;14.18;;;10.52;;
41077;SDS011;26823;42.662;23.352;2024-02-21T08:52:18;13.40;;;10.23;;
41077;SDS011;26823;42.662;23.352;2024-02-21T08:54:43;14.02;;;10.57;;
41077;SDS011;26823;42.662;23.352;2024-02-21T08:57:09;14.93;;;10.52;;
41077;SDS011;26823;42.662;23.352;2024-02-21T08:59:36;14.82;;;10.80;;
41077;SDS011;26823;42.662;23.352;2024-02-21T09:02:03;15.30;;;10.13;;
41077;SDS011;26823;42.662;23.352;2024-02-21T09:04:28;15.43;;;10.32;;
41077;SDS011;26823;42.662;23.352;2024-02-21T09:06:54;14.43;;;10.57;;
41077;SDS011;26823;42.662;23.352;2024-02-21T09:09:19;16.23;;;11.13;;
41077;SDS011;26823;42.662;23.352;2024-02-21T09:11:46;12.20;;;10.07;;
41077;SDS011;26823;42.662;23.352;2024-02-21T09:14:11;10.43;;;8.75;;
41077;SDS011;26823;42.662;23.352;2024-02-21T09:16:37;14.25;;;10.77;;
41077;SDS011;26823;42.662;23.352;2024-02-21T09:24:14;13.93;;;8.80;;
41077;SDS011;26823;42.662;23.352;2024-02-21T09:26:40;14.43;;;10.65;;
41077;SDS011;26823;42.662;23.352;2024-02-21T09:29:05;19.27;;;10.55;;
41077;SDS011;26823;42.662;23.352;2024-02-21T09:31:31;13.90;;;10.85;;
41077;SDS011;26823;42.662;23.352;2024-02-21T09:33:56;13.13;;;10.40;;
41077;SDS011;26823;42.662;23.352;2024-02-21T09:36:24;12.70;;;10.10;;
41077;SDS011;26823;42.662;23.352;2024-02-21T09:38:49;14.50;;;11.57;;
41077;SDS011;26823;42.662;23.352;2024-02-21T09:43:42;13.20;;;11.00;;
41077;SDS011;26823;42.662;23.352;2024-02-21T09:46:13;14.98;;;11.27;;
41077;SDS011;26823;42.662;23.352;2024-02-21T09:51:15;15.77;;;11.15;;
41077;SDS011;26823;42.662;23.352;2024-02-21T09:53:42;14.55;;;10.65;;
41077;SDS011;26823;42.662;23.352;2024-02-21T09:56:09;13.68;;;10.77;;
41077;SDS011;26823;42.662;23.352;2024-02-21T09:58:35;14.63;;;10.45;;
41077;SDS011;26823;42.662;23.352;2024-02-21T10:01:02;13.20;;;11.23;;
41077;SDS011;26823;42.662;23.352;2024-02-21T10:03:31;12.73;;;9.70;;
41077;SDS011;26823;42.662;23.352;2024-02-21T10:05:58;11.73;;;9.73;;
41077;SDS011;26823;42.662;23.352;2024-02-21T10:08:26;10.77;;;8.57;;
41077;SDS011;26823;42.662;23.352;2024-02-21T10:10:51;12.30;;;8.82;;
41077;SDS011;26823;42.662;23.352;2024-02-21T10:13:24;9.73;;;8.73;;
41077;SDS011;26823;42.662;23.352;2024-02-21T10:16:01;9.48;;;8.40;;
41077;SDS011;26823;42.662;23.352;2024-02-21T10:18:29;10.57;;;8.88;;
41077;SDS011;26823;42.662;23.352;2024-02-21T10:23:26;12.85;;;8.60;;
41077;SDS011;26823;42.662;23.352;2024-02-21T10:25:52;13.27;;;9.43;;
41077;SDS011;26823;42.662;23.352;2024-02-21T10:28:17;11.93;;;8.82;;
41077;SDS011;26823;42.662;23.352;2024-02-21T10:30:51;8.93;;;7.85;;
41077;SDS011;26823;42.662;23.352;2024-02-21T10:33:17;8.57;;;7.68;;
41077;SDS011;26823;42.662;23.352;2024-02-21T10:35:45;11.65;;;7.15;;
41077;SDS011;26823;42.662;23.352;2024-02-21T10:38:11;14.35;;;8.20;;
41077;SDS011;26823;42.662;23.352;2024-02-21T10:40:37;9.27;;;8.00;;
41077;SDS011;26823;42.662;23.352;2024-02-21T10:43:03;9.65;;;7.38;;
41077;SDS011;26823;42.662;23.352;2024-02-21T10:45:36;14.73;;;8.05;;
41077;SDS011;26823;42.662;23.352;2024-02-21T10:50:56;8.70;;;7.78;;
41077;SDS011;26823;42.662;23.352;2024-02-21T10:56:31;10.18;;;6.30;;
41077;SDS011;26823;42.662;23.352;2024-02-21T10:59:01;7.03;;;6.25;;
41077;SDS011;26823;42.662;23.352;2024-02-21T11:01:28;8.55;;;7.45;;
41077;SDS011;26823;42.662;23.352;2024-02-21T11:03:57;8.02;;;5.90;;
41077;SDS011;26823;42.662;23.352;2024-02-21T11:06:26;7.43;;;6.72;;
41077;SDS011;26823;42.662;23.352;2024-02-21T11:09:07;8.70;;;7.47;;
41077;SDS011;26823;42.662;23.352;2024-02-21T11:11:34;14.25;;;8.32;;
41077;SDS011;26823;42.662;23.352;2024-02-21T11:16:43;7.85;;;6.15;;
41077;SDS011;26823;42.662;23.352;2024-02-21T11:19:27;7.20;;;6.22;;
41077;SDS011;26823;42.662;23.352;2024-02-21T11:21:54;6.90;;;6.20;;
41077;SDS011;26823;42.662;23.352;2024-02-21T11:26:52;5.10;;;4.53;;
41077;SDS011;26823;42.662;23.352;2024-02-21T11:29:22;4.28;;;3.90;;
41077;SDS011;26823;42.662;23.352;2024-02-21T11:31:49;4.30;;;3.85;;
41077;SDS011;26823;42.662;23.352;2024-02-21T11:34:17;6.07;;;4.57;;
41077;SDS011;26823;42.662;23.352;2024-02-21T11:36:51;11.63;;;4.25;;
41077;SDS011;26823;42.662;23.352;2024-02-21T11:39:20;4.95;;;4.50;;
41077;SDS011;26823;42.662;23.352;2024-02-21T11:42:07;5.68;;;4.70;;
41077;SDS011;26823;42.662;23.352;2024-02-21T11:44:36;4.75;;;4.10;;
41077;SDS011;26823;42.662;23.352;2024-02-21T11:47:07;4.15;;;3.53;;
41077;SDS011;26823;42.662;23.352;2024-02-21T11:49:36;5.13;;;4.63;;
41077;SDS011;26823;42.662;23.352;2024-02-21T11:52:04;4.50;;;4.10;;
41077;SDS011;26823;42.662;23.352;2024-02-21T11:54:33;5.30;;;4.80;;
41077;SDS011;26823;42.662;23.352;2024-02-21T11:56:59;5.35;;;4.28;;
41077;SDS011;26823;42.662;23.352;2024-02-21T11:59:26;6.43;;;4.55;;
41077;SDS011;26823;42.662;23.352;2024-02-21T12:01:52;6.00;;;5.20;;
41077;SDS011;26823;42.662;23.352;2024-02-21T12:04:18;4.57;;;4.00;;
41077;SDS011;26823;42.662;23.352;2024-02-21T12:06:49;5.22;;;4.47;;
41077;SDS011;26823;42.662;23.352;2024-02-21T12:09:15;5.25;;;4.65;;
41077;SDS011;26823;42.662;23.352;2024-02-21T12:11:41;7.07;;;4.57;;
41077;SDS011;26823;42.662;23.352;2024-02-21T12:14:07;5.40;;;4.85;;
41077;SDS011;26823;42.662;23.352;2024-02-21T12:16:34;5.22;;;4.40;;
41077;SDS011;26823;42.662;23.352;2024-02-21T12:19:00;4.80;;;4.32;;
41077;SDS011;26823;42.662;23.352;2024-02-21T12:21:26;6.57;;;4.75;;
41077;SDS011;26823;42.662;23.352;2024-02-21T12:23:55;6.95;;;4.93;;
41077;SDS011;26823;42.662;23.352;2024-02-21T12:26:21;5.72;;;5.05;;
41077;SDS011;26823;42.662;23.352;2024-02-21T12:28:47;5.82;;;4.80;;
41077;SDS011;26823;42.662;23.352;2024-02-21T12:31:12;7.22;;;5.10;;
41077;SDS011;26823;42.662;23.352;2024-02-21T12:33:38;5.65;;;4.85;;
41077;SDS011;26823;42.662;23.352;2024-02-21T12:36:04;9.32;;;4.57;;
41077;SDS011;26823;42.662;23.352;2024-02-21T12:38:29;7.10;;;4.72;;
41077;SDS011;26823;42.662;23.352;2024-02-21T12:40:55;5.28;;;4.38;;
41077;SDS011;26823;42.662;23.352;2024-02-21T12:43:22;5.63;;;4.57;;
41077;SDS011;26823;42.662;23.352;2024-02-21T12:45:48;5.82;;;5.22;;
41077;SDS011;26823;42.662;23.352;2024-02-21T12:48:14;6.07;;;4.90;;
41077;SDS011;26823;42.662;23.352;2024-02-21T12:50:40;6.35;;;5.03;;
41077;SDS011;26823;42.662;23.352;2024-02-21T12:53:13;6.03;;;4.97;;
41077;SDS011;26823;42.662;23.352;2024-02-21T12:55:38;8.35;;;4.93;;
41077;SDS011;26823;42.662;23.352;2024-02-21T12:58:04;11.30;;;5.60;;
41077;SDS011;26823;42.662;23.352;2024-02-21T13:00:31;6.57;;;4.95;;
41077;SDS011;26823;42.662;23.352;2024-02-21T13:02:57;5.22;;;4.72;;
41077;SDS011;26823;42.662;23.352;2024-02-21T13:05:22;6.30;;;4.97;;
41077;SDS011;26823;42.662;23.352;2024-02-21T13:07:48;7.53;;;5.20;;
41077;SDS011;26823;42.662;23.352;2024-02-21T13:10:14;9.20;;;5.72;;
41077;SDS011;26823;42.662;23.352;2024-02-21T13:12:40;7.93;;;5.53;;
41077;SDS011;26823;42.662;23.352;2024-02-21T13:15:05;9.88;;;6.30;;
41077;SDS011;26823;42.662;23.352;2024-02-21T13:17:36;9.05;;;6.20;;
41077;SDS011;26823;42.662;23.352;2024-02-21T13:20:02;7.20;;;5.97;;
41077;SDS011;26823;42.662;23.352;2024-02-21T13:22:28;8.05;;;5.60;;
41077;SDS011;26823;42.662;23.352;2024-02-21T13:24:53;7.47;;;5.97;;
41077;SDS011;26823;42.662;23.352;2024-02-21T13:27:19;8.70;;;7.05;;
41077;SDS011;26823;42.662;23.352;2024-02-21T13:29:44;7.30;;;5.57;;
41077;SDS011;26823;42.662;23.352;2024-02-21T13:32:10;8.52;;;6.45;;
41077;SDS011;26823;42.662;23.352;2024-02-21T13:34:36;9.55;;;7.32;;
41077;SDS011;26823;42.662;23.352;2024-02-21T13:37:01;8.63;;;7.15;;
41077;SDS011;26823;42.662;23.352;2024-02-21T13:39:27;6.50;;;5.63;;
41077;SDS011;26823;42.662;23.352;2024-02-21T13:41:52;7.82;;;6.00;;
41077;SDS011;26823;42.662;23.352;2024-02-21T13:44:18;7.85;;;5.93;;
41077;SDS011;26823;42.662;23.352;2024-02-21T13:46:44;8.45;;;5.78;;
41077;SDS011;26823;42.662;23.352;2024-02-21T13:49:09;8.40;;;5.82;;
41077;SDS011;26823;42.662;23.352;2024-02-21T13:51:35;10.10;;;6.25;;
41077;SDS011;26823;42.662;23.352;2024-02-21T13:54:03;7.07;;;5.18;;
41077;SDS011;26823;42.662;23.352;2024-02-21T13:56:30;7.85;;;5.38;;
41077;SDS011;26823;42.662;23.352;2024-02-21T13:58:58;7.50;;;6.05;;
41077;SDS011;26823;42.662;23.352;2024-02-21T14:01:25;8.35;;;6.18;;
41077;SDS011;26823;42.662;23.352;2024-02-21T14:03:52;9.80;;;6.43;;
41077;SDS011;26823;42.662;23.352;2024-02-21T14:06:18;7.80;;;5.72;;
41077;SDS011;26823;42.662;23.352;2024-02-21T14:08:43;7.78;;;6.22;;
41077;SDS011;26823;42.662;23.352;2024-02-21T14:11:09;12.48;;;7.63;;
41077;SDS011;26823;42.662;23.352;2024-02-21T14:13:34;8.30;;;6.55;;
41077;SDS011;26823;42.662;23.352;2024-02-21T14:16:00;9.50;;;6.93;;
41077;SDS011;26823;42.662;23.352;2024-02-21T14:18:25;7.60;;;6.05;;
41077;SDS011;26823;42.662;23.352;2024-02-21T14:20:51;8.70;;;5.88;;
41077;SDS011;26823;42.662;23.352;2024-02-21T14:23:17;5.43;;;4.47;;
41077;SDS011;26823;42.662;23.352;2024-02-21T14:25:43;6.68;;;5.57;;
41077;SDS011;26823;42.662;23.352;2024-02-21T14:28:09;5.13;;;4.43;;
41077;SDS011;26823;42.662;23.352;2024-02-21T14:30:35;4.95;;;4.05;;
41077;SDS011;26823;42.662;23.352;2024-02-21T14:33:00;6.80;;;4.95;;
41077;SDS011;26823;42.662;23.352;2024-02-21T14:35:26;9.27;;;5.25;;
41077;SDS011;26823;42.662;23.352;2024-02-21T14:37:52;7.97;;;5.50;;
41077;SDS011;26823;42.662;23.352;2024-02-21T14:40:22;6.80;;;5.05;;
41077;SDS011;26823;42.662;23.352;2024-02-21T14:42:48;6.80;;;5.35;;
41077;SDS011;26823;42.662;23.352;2024-02-21T14:45:13;7.25;;;5.88;;
41077;SDS011;26823;42.662;23.352;2024-02-21T14:47:39;6.85;;;5.15;;